createdAt,value
2023-02-08T00:03:02.229Z,103741.78
2023-02-08T00:07:04.306Z,103734.19
2023-02-08T00:11:06.929Z,103738.56
2023-02-08T00:15:08.906Z,103739.75
2023-02-08T00:19:10.478Z,103739.69
2023-02-08T00:23:13.007Z,103740.25
2023-02-08T00:27:15.786Z,103737.19
2023-02-08T00:31:17.301Z,103740.91
2023-02-08T00:35:18.903Z,103748.09
2023-02-08T00:39:21.185Z,103749.59
2023-02-08T00:43:22.665Z,103749.88
2023-02-08T00:47:24.799Z,103746.78
2023-02-08T00:51:26.239Z,103746.03
2023-02-08T00:55:27.751Z,103748.75
2023-02-08T00:59:29.276Z,103746.22
2023-02-08T01:03:33.878Z,103737.00
2023-02-08T01:07:38.685Z,103735.28
2023-02-08T01:11:40.135Z,103741.94
2023-02-08T01:15:41.619Z,103751.03
2023-02-08T01:19:43.074Z,103751.13
2023-02-08T01:23:45.673Z,103740.91
2023-02-08T01:27:47.823Z,103754.22
2023-02-08T01:31:49.365Z,103736.84
2023-02-08T01:35:53.962Z,103736.22
2023-02-08T01:39:55.494Z,103733.47
2023-02-08T01:43:59.839Z,103740.28
2023-02-08T01:48:04.720Z,103741.78
2023-02-08T01:52:16.987Z,103746.41
2023-02-08T01:56:23.400Z,103739.22
2023-02-08T02:00:25.048Z,103743.75
2023-02-08T02:04:27.450Z,103750.78
2023-02-08T02:08:30.569Z,103749.09
2023-02-08T02:12:33.840Z,103749.69
2023-02-08T02:16:36.143Z,103740.09
2023-02-08T02:20:43.675Z,103741.97
2023-02-08T02:25:23.689Z,103733.38
2023-02-08T02:29:31.355Z,103740.59
2023-02-08T02:33:58.477Z,103747.28
2023-02-08T02:38:21.817Z,103747.56
2023-02-08T02:43:01.191Z,103747.78
2023-02-08T02:47:15.653Z,103747.53
2023-02-08T02:51:27.213Z,103744.34
2023-02-08T02:55:32.345Z,103746.22
2023-02-08T02:59:35.307Z,103749.97
2023-02-08T03:03:36.874Z,103746.94
2023-02-08T03:07:41.117Z,103737.25
2023-02-08T03:11:54.352Z,103748.97
2023-02-08T03:15:58.586Z,103744.50
2023-02-08T03:20:08.528Z,103747.59
2023-02-08T03:24:26.684Z,103746.34
2023-02-08T03:28:49.220Z,103742.72
2023-02-08T03:32:56.945Z,103738.94
2023-02-08T03:37:08.192Z,103750.94
2023-02-08T03:41:14.238Z,103740.44
2023-02-08T03:45:21.808Z,103738.41
2023-02-08T03:49:29.622Z,103739.44
2023-02-08T03:53:38.177Z,103742.00
2023-02-08T03:57:54.748Z,103736.94
2023-02-08T04:02:01.946Z,103734.28
2023-02-08T04:06:03.732Z,103738.50
2023-02-08T04:10:05.517Z,103739.25
2023-02-08T04:14:06.987Z,103743.59
2023-02-08T04:18:08.520Z,103737.72
2023-02-08T04:22:09.972Z,103740.03
2023-02-08T04:26:11.465Z,103741.53
2023-02-08T04:30:13.602Z,103737.31
2023-02-08T04:34:15.449Z,103736.47
2023-02-08T04:38:16.881Z,103738.75
2023-02-08T04:42:18.735Z,103743.06
2023-02-08T04:46:20.229Z,103735.66
2023-02-08T04:50:21.784Z,103728.06
2023-02-08T04:54:23.311Z,103738.75
2023-02-08T04:58:24.849Z,103739.78
2023-02-08T05:02:26.264Z,103747.63
2023-02-08T05:06:27.711Z,103747.34
2023-02-08T05:10:29.196Z,103748.13
2023-02-08T05:14:30.759Z,103746.22
2023-02-08T05:18:32.205Z,103750.47
2023-02-08T05:22:33.818Z,103747.38
2023-02-08T05:26:35.235Z,103753.78
2023-02-08T05:30:38.546Z,103756.81
2023-02-08T05:34:40.297Z,103753.97
2023-02-08T05:38:41.711Z,103762.84
2023-02-08T05:42:44.444Z,103760.13
2023-02-08T05:46:45.956Z,103762.94
2023-02-08T05:50:47.478Z,103766.88
2023-02-08T05:54:48.889Z,103764.13
2023-02-08T05:58:50.285Z,103771.63
2023-02-08T06:02:51.998Z,103770.09
2023-02-08T06:06:53.523Z,103765.50
2023-02-08T06:10:54.982Z,103767.66
2023-02-08T06:14:56.475Z,103772.03
2023-02-08T06:18:58.305Z,103773.63
2023-02-08T06:22:59.786Z,103782.97
2023-02-08T06:27:01.227Z,103781.97
2023-02-08T06:31:02.701Z,103780.66
2023-02-08T06:35:04.350Z,103790.31
2023-02-08T06:39:05.968Z,103787.66
2023-02-08T06:43:07.558Z,103793.25
2023-02-08T06:47:08.975Z,103795.13
2023-02-08T06:51:10.432Z,103802.03
2023-02-08T06:55:11.908Z,103793.34
2023-02-08T06:59:13.485Z,103802.25
2023-02-08T07:03:17.387Z,103793.09
2023-02-08T07:07:19.419Z,103793.63
2023-02-08T07:11:21.964Z,103801.78
2023-02-08T07:15:23.403Z,103801.53
2023-02-08T07:19:24.881Z,103805.53
2023-02-08T07:23:26.363Z,103789.75
2023-02-08T07:27:27.976Z,103792.41
2023-02-08T07:31:29.500Z,103781.84
2023-02-08T07:35:31.029Z,103788.38
2023-02-08T07:39:32.706Z,103782.78
2023-02-08T07:43:35.890Z,103786.31
2023-02-08T07:47:37.385Z,103790.63
2023-02-08T07:51:38.848Z,103795.28
2023-02-08T07:55:40.278Z,103798.72
2023-02-08T07:59:41.740Z,103805.03
2023-02-08T08:03:43.231Z,103810.72
2023-02-08T08:07:44.729Z,103811.38
2023-02-08T08:11:46.509Z,103812.94
2023-02-08T08:15:47.931Z,103822.50
2023-02-08T08:19:49.386Z,103821.59
2023-02-08T08:23:50.882Z,103827.03
2023-02-08T08:27:52.911Z,103830.31
2023-02-08T08:31:54.406Z,103833.84
2023-02-08T08:35:57.095Z,103841.97
2023-02-08T08:39:58.633Z,103828.97
2023-02-08T08:44:00.105Z,103836.03
2023-02-08T08:48:03.312Z,103827.81
2023-02-08T08:52:07.737Z,103823.63
2023-02-08T08:56:09.350Z,103816.03
2023-02-08T09:00:11.675Z,103814.22
2023-02-08T09:04:13.214Z,103809.03
2023-02-08T09:08:14.677Z,103808.16
2023-02-08T09:12:16.170Z,103801.41
2023-02-08T09:16:18.463Z,103803.22
2023-02-08T09:20:20.062Z,103799.47
2023-02-08T09:24:21.616Z,103798.41
2023-02-08T09:28:23.131Z,103807.59
2023-02-08T09:32:24.706Z,103805.91
2023-02-08T09:36:31.600Z,103807.28
2023-02-08T09:40:48.784Z,103809.00
2023-02-08T09:45:07.231Z,103811.38
2023-02-08T09:49:19.787Z,103806.72
2023-02-08T09:53:35.131Z,103808.41
2023-02-08T09:57:38.456Z,103802.41
2023-02-08T10:01:39.959Z,103795.94
2023-02-08T10:05:41.642Z,103789.44
2023-02-08T10:09:43.202Z,103787.03
2023-02-08T10:13:56.904Z,103783.59
2023-02-08T10:18:04.450Z,103785.25
2023-02-08T10:22:47.117Z,103772.78
2023-02-08T10:26:54.178Z,103765.16
2023-02-08T10:31:30.506Z,103769.47
2023-02-08T10:35:38.984Z,103770.91
2023-02-08T10:39:40.863Z,103760.91
2023-02-08T10:44:08.374Z,103742.75
2023-02-08T10:48:22.885Z,103748.97
2023-02-08T10:52:24.414Z,103750.25
2023-02-08T10:56:49.793Z,103732.38
2023-02-08T11:00:52.070Z,103738.03
2023-02-08T11:05:07.696Z,103728.41
2023-02-08T11:09:35.601Z,103730.03
2023-02-08T11:13:46.116Z,103723.38
2023-02-08T11:17:47.692Z,103720.72
2023-02-08T11:21:51.937Z,103716.88
2023-02-08T11:25:54.830Z,103710.13
2023-02-08T11:30:14.573Z,103706.84
2023-02-08T11:34:25.128Z,103705.44
2023-02-08T11:38:28.190Z,103705.06
2023-02-08T11:42:35.198Z,103682.66
2023-02-08T11:46:37.432Z,103692.88
2023-02-08T11:50:39.444Z,103702.50
2023-02-08T11:54:42.432Z,103694.69
2023-02-08T11:59:19.288Z,103689.03
2023-02-08T12:03:37.590Z,103692.00
2023-02-08T12:07:47.640Z,103696.16
2023-02-08T12:11:50.620Z,103688.91
2023-02-08T12:16:16.831Z,103679.19
2023-02-08T12:20:32.155Z,103680.16
2023-02-08T12:24:51.016Z,103676.22
2023-02-08T12:29:06.308Z,103665.66
2023-02-08T12:33:23.002Z,103685.59
2023-02-08T12:37:43.158Z,103688.50
2023-02-08T12:42:16.290Z,103682.41
2023-02-08T12:46:46.418Z,103691.59
2023-02-08T12:50:55.963Z,103681.06
2023-02-08T12:55:02.967Z,103679.22
2023-02-08T12:59:13.521Z,103672.03
2023-02-08T13:03:56.880Z,103688.03
2023-02-08T13:08:36.875Z,103668.63
2023-02-08T13:12:46.031Z,103661.47
2023-02-08T13:16:52.212Z,103658.34
2023-02-08T13:20:59.304Z,103657.88
2023-02-08T13:25:07.662Z,103652.91
2023-02-08T13:29:18.312Z,103642.63
2023-02-08T13:33:46.602Z,103628.47
2023-02-08T13:38:31.833Z,103627.38
2023-02-08T13:42:48.584Z,103625.69
2023-02-08T13:46:51.149Z,103628.03
2023-02-08T13:50:57.038Z,103620.47
2023-02-08T13:55:32.002Z,103619.69
2023-02-08T13:59:35.305Z,103615.66
2023-02-08T14:03:36.951Z,103623.19
2023-02-08T14:07:38.473Z,103616.28
2023-02-08T14:12:06.858Z,103612.06
2023-02-08T14:16:38.580Z,103612.75
2023-02-08T14:20:41.168Z,103609.59
2023-02-08T14:25:15.938Z,103604.78
2023-02-08T14:29:29.968Z,103599.38
2023-02-08T14:33:50.070Z,103593.97
2023-02-08T14:38:20.340Z,103583.22
2023-02-08T14:43:00.741Z,103595.31
2023-02-08T14:47:02.411Z,103595.84
2023-02-08T14:51:09.819Z,103592.09
2023-02-08T14:55:21.666Z,103587.63
2023-02-08T14:59:26.992Z,103593.75
2023-02-08T15:03:31.664Z,103577.56
2023-02-08T15:07:49.600Z,103579.38
2023-02-08T15:12:24.928Z,103570.25
2023-02-08T15:16:40.153Z,103566.94
2023-02-08T15:20:43.754Z,103565.81
2023-02-08T15:24:56.640Z,103557.75
2023-02-08T15:29:00.851Z,103553.84
2023-02-08T15:33:07.540Z,103547.34
2023-02-08T15:37:16.495Z,103555.41
2023-02-08T15:41:30.121Z,103542.63
2023-02-08T15:45:31.664Z,103543.81
2023-02-08T15:49:39.118Z,103542.50
2023-02-08T15:53:43.560Z,103532.16
2023-02-08T15:57:54.363Z,103519.63
2023-02-08T16:01:58.315Z,103522.47
2023-02-08T16:06:03.330Z,103526.91
2023-02-08T16:10:08.183Z,103517.88
2023-02-08T16:14:15.061Z,103520.31
2023-02-08T16:18:39.682Z,103531.50
2023-02-08T16:22:41.152Z,103532.50
2023-02-08T16:26:57.967Z,103530.19
2023-02-08T16:31:02.626Z,103521.34
2023-02-08T16:35:19.645Z,103529.59
2023-02-08T16:39:39.565Z,103526.19
2023-02-08T16:43:44.002Z,103528.31
2023-02-08T16:47:52.096Z,103526.63
2023-02-08T16:52:00.249Z,103526.34
2023-02-08T16:56:01.943Z,103518.44
2023-02-08T17:00:18.188Z,103524.88
2023-02-08T17:04:19.756Z,103511.06
2023-02-08T17:08:22.252Z,103520.00
2023-02-08T17:12:24.389Z,103516.50
2023-02-08T17:16:28.620Z,103517.75
2023-02-08T17:20:33.766Z,103509.00
2023-02-08T17:24:36.774Z,103504.13
2023-02-08T17:28:39.534Z,103503.91
2023-02-08T17:32:40.977Z,103496.44
2023-02-08T17:36:42.841Z,103509.53
2023-02-08T17:40:44.875Z,103494.22
2023-02-08T17:44:46.436Z,103484.81
2023-02-08T17:48:48.429Z,103486.53
2023-02-08T17:52:50.046Z,103485.13
2023-02-08T17:56:56.476Z,103475.97
2023-02-08T18:00:58.008Z,103474.06
2023-02-08T18:04:59.632Z,103470.00
2023-02-08T18:09:01.789Z,103471.22
2023-02-08T18:13:03.251Z,103469.00
2023-02-08T18:17:05.377Z,103467.16
2023-02-08T18:21:15.536Z,103464.78
2023-02-08T18:25:17.580Z,103460.97
2023-02-08T18:29:19.298Z,103462.00
2023-02-08T18:33:20.790Z,103453.84
2023-02-08T18:37:23.082Z,103455.13
2023-02-08T18:41:26.920Z,103442.09
2023-02-08T18:45:28.464Z,103434.88
2023-02-08T18:49:29.954Z,103432.00
2023-02-08T18:53:34.218Z,103424.19
2023-02-08T18:57:38.764Z,103425.41
2023-02-08T19:01:40.380Z,103416.97
2023-02-08T19:05:42.249Z,103414.22
2023-02-08T19:09:44.116Z,103415.69
2023-02-08T19:13:46.845Z,103414.78
2023-02-08T19:17:48.283Z,103402.81
2023-02-08T19:21:49.773Z,103396.50
2023-02-08T19:25:51.298Z,103390.19
2023-02-08T19:29:56.132Z,103395.28
2023-02-08T19:33:59.889Z,103382.66
2023-02-08T19:38:01.450Z,103379.38
2023-02-08T19:42:03.183Z,103374.38
2023-02-08T19:46:13.718Z,103369.50
2023-02-08T19:50:15.210Z,103372.34
2023-02-08T19:54:18.445Z,103363.50
2023-02-08T19:58:19.891Z,103368.94
2023-02-08T20:02:24.330Z,103349.38
2023-02-08T20:06:29.475Z,103341.94
2023-02-08T20:10:30.908Z,103332.34
2023-02-08T20:14:33.769Z,103335.19
2023-02-08T20:18:35.262Z,103337.38
2023-02-08T20:22:36.728Z,103333.78
2023-02-08T20:26:43.586Z,103327.31
2023-02-08T20:30:45.079Z,103335.47
2023-02-08T20:34:58.439Z,103332.22
2023-02-08T20:39:00.810Z,103340.19
2023-02-08T20:43:02.264Z,103340.53
2023-02-08T20:47:03.919Z,103335.63
2023-02-08T20:51:12.929Z,103332.88
2023-02-08T20:55:14.627Z,103320.81
2023-02-08T20:59:16.540Z,103332.25
2023-02-08T21:03:18.053Z,103309.28
2023-02-08T21:07:19.665Z,103302.63
2023-02-08T21:11:23.806Z,103308.81
2023-02-08T21:15:25.306Z,103310.50
2023-02-08T21:19:28.997Z,103298.44
2023-02-08T21:23:30.534Z,103296.88
2023-02-08T21:27:32.070Z,103290.88
2023-02-08T21:31:36.335Z,103283.56
2023-02-08T21:35:38.388Z,103281.88
2023-02-08T21:39:39.844Z,103276.69
2023-02-08T21:43:41.856Z,103278.56
2023-02-08T21:47:43.272Z,103275.91
2023-02-08T21:52:03.870Z,103274.00
2023-02-08T21:56:08.964Z,103263.28
2023-02-08T22:00:11.351Z,103262.53
2023-02-08T22:04:12.829Z,103247.34
2023-02-08T22:08:14.345Z,103236.94
2023-02-08T22:12:18.360Z,103234.97
2023-02-08T22:16:20.048Z,103232.25
2023-02-08T22:20:21.781Z,103227.88
2023-02-08T22:24:23.232Z,103218.72
2023-02-08T22:28:24.720Z,103222.88
2023-02-08T22:32:26.299Z,103227.03
2023-02-08T22:36:27.793Z,103233.59
2023-02-08T22:40:29.385Z,103224.56
2023-02-08T22:44:30.876Z,103214.31
2023-02-08T22:48:32.728Z,103210.75
2023-02-08T22:52:34.565Z,103219.34
2023-02-08T22:56:36.076Z,103207.25
2023-02-08T23:00:37.660Z,103198.50
2023-02-08T23:04:39.232Z,103202.66
2023-02-08T23:08:40.744Z,103192.84
2023-02-08T23:12:42.240Z,103190.59
2023-02-08T23:16:44.018Z,103192.47
2023-02-08T23:20:45.957Z,103189.97
2023-02-08T23:24:47.648Z,103192.69
2023-02-08T23:28:54.034Z,103186.63
2023-02-08T23:32:55.635Z,103185.34
2023-02-08T23:36:57.064Z,103189.56
2023-02-08T23:41:03.132Z,103171.16
2023-02-08T23:45:05.430Z,103168.50
2023-02-08T23:49:06.882Z,103167.00
2023-02-08T23:53:08.324Z,103160.53
2023-02-08T23:57:09.859Z,103162.63
